Time;durP1;ratioP1;P1;durP2;ratioP2;P2;SDS_P1;SDS_P2;PMS_P1;PMS_P2;Temp;Humidity;BMP_temperature;BMP_pressure;BME280_temperature;BME280_humidity;BME280_pressure;Samples;Min_cycle;Max_cycle;Signal;HPM_P1;HPM_P2
2021/05/20 00:02:20;;;;;;;7.05;5.60;;;;;;;5.47;70.18;99415.28;1715282;83;20984;-65
2021/05/20 00:04:46;;;;;;;11.35;5.62;;;;;;;5.43;70.25;99421.43;1649878;86;21017;-66
2021/05/20 00:07:13;;;;;;;7.73;5.37;;;;;;;5.42;70.35;99417.16;1711043;83;21523;-65
2021/05/20 00:09:41;;;;;;;7.03;5.27;;;;;;;5.40;70.37;99420.23;1718192;83;21450;-66
2021/05/20 00:12:08;;;;;;;8.95;5.83;;;;;;;5.39;70.43;99422.44;1712048;83;21454;-65
2021/05/20 00:14:35;;;;;;;8.15;5.42;;;;;;;5.36;70.54;99419.94;1718076;83;20948;-66
2021/05/20 00:17:02;;;;;;;7.30;5.42;;;;;;;5.35;70.63;99419.55;1711983;82;21550;-65
2021/05/20 00:19:29;;;;;;;9.38;6.15;;;;;;;5.33;70.73;99413.56;1724252;83;20940;-65
2021/05/20 00:21:55;;;;;;;9.90;6.00;;;;;;;5.31;70.80;99408.88;1657214;84;20966;-65
2021/05/20 00:24:22;;;;;;;8.33;5.60;;;;;;;5.31;70.87;99414.89;1663963;84;20982;-65
2021/05/20 00:26:49;;;;;;;5.87;5.35;;;;;;;5.29;70.86;99410.66;1658894;84;21567;-66
2021/05/20 00:29:16;;;;;;;7.17;5.60;;;;;;;5.27;71.00;99412.47;1674628;84;21043;-65
2021/05/20 00:31:43;;;;;;;7.58;5.53;;;;;;;5.25;71.08;99411.66;1670012;83;21006;-65
2021/05/20 00:34:09;;;;;;;7.25;5.15;;;;;;;5.25;71.14;99417.67;1655130;84;20977;-66
2021/05/20 00:36:36;;;;;;;10.33;5.77;;;;;;;5.25;71.19;99411.66;1713712;81;20936;-66
2021/05/20 00:39:04;;;;;;;9.28;6.17;;;;;;;5.25;71.30;99411.66;1707610;83;21446;-66
2021/05/20 00:41:30;;;;;;;9.73;5.72;;;;;;;5.25;71.36;99411.66;1706331;81;21080;-66
2021/05/20 00:43:57;;;;;;;9.18;5.85;;;;;;;5.25;71.38;99408.62;1707756;82;20944;-66
2021/05/20 00:46:24;;;;;;;7.65;5.65;;;;;;;5.26;71.45;99418.52;1652400;86;21434;-66
2021/05/20 00:48:50;;;;;;;8.43;6.33;;;;;;;5.26;71.46;99413.34;1681962;84;20973;-65
2021/05/20 00:51:17;;;;;;;9.58;6.40;;;;;;;5.23;71.47;99410.84;1693400;84;20949;-66
2021/05/20 00:53:47;;;;;;;10.70;6.17;;;;;;;5.23;71.61;99416.03;1687327;84;20991;-66
2021/05/20 00:56:14;;;;;;;9.15;6.30;;;;;;;5.22;71.64;99414.34;1692180;84;21506;-65
2021/05/20 00:58:44;;;;;;;8.50;5.65;;;;;;;5.20;71.72;99416.13;1687115;82;20973;-66
2021/05/20 01:01:11;;;;;;;6.60;5.92;;;;;;;5.19;71.81;99417.03;1688238;83;21531;-66
2021/05/20 01:03:39;;;;;;;8.73;6.00;;;;;;;5.18;71.89;99418.74;1686285;84;26706;-66
2021/05/20 01:06:05;;;;;;;;;;;;;;;5.18;72.02;99421.78;1687217;84;21007;-66
2021/05/20 01:08:32;;;;;;;7.67;5.78;;;;;;;5.18;72.13;99429.55;1684669;83;20151;-66
2021/05/20 01:11:00;;;;;;;9.60;6.50;;;;;;;5.15;72.13;99427.47;1679652;83;20948;-65
2021/05/20 01:13:27;;;;;;;9.58;6.08;;;;;;;5.14;72.16;99418.00;1684971;84;21487;-66
2021/05/20 01:15:54;;;;;;;10.58;6.72;;;;;;;5.14;72.20;99423.17;1685441;84;21207;-65
2021/05/20 01:18:21;;;;;;;7.78;6.22;;;;;;;5.14;72.20;99425.76;1684535;84;21998;-65
2021/05/20 01:20:47;;;;;;;8.08;5.67;;;;;;;5.13;72.27;99417.61;1684941;84;21547;-65
2021/05/20 01:23:17;;;;;;;7.47;6.03;;;;;;;5.13;72.31;99429.25;1684757;82;21546;-65
2021/05/20 01:25:47;;;;;;;8.60;5.70;;;;;;;5.11;72.33;99429.73;1683900;84;20909;-66
2021/05/20 01:28:18;;;;;;;7.25;5.58;;;;;;;5.09;72.39;99428.92;1687803;84;21526;-66
2021/05/20 01:30:48;;;;;;;8.68;6.03;;;;;;;5.08;72.47;99423.81;1687193;84;20945;-65
2021/05/20 01:33:15;;;;;;;8.08;6.30;;;;;;;5.04;72.43;99426.07;1686004;84;20966;-66
2021/05/20 01:35:46;;;;;;;8.08;6.15;;;;;;;5.02;72.57;99423.55;1685740;84;28682;-66
2021/05/20 01:41:03;;;;;;;9.45;5.97;;;;;;;4.96;72.62;99426.32;1624518;87;21003;-65
2021/05/20 01:43:31;;;;;;;11.63;6.10;;;;;;;4.94;72.71;99430.69;1622413;87;21107;-66
2021/05/20 01:45:58;;;;;;;7.12;5.83;;;;;;;4.92;72.80;99430.71;1623242;88;20939;-66
2021/05/20 01:48:35;;;;;;;7.35;6.15;;;;;;;4.92;72.80;99432.45;1613498;87;21165;-66
2021/05/20 01:51:11;;;;;;;8.53;6.77;;;;;;;4.90;72.79;99431.23;1623464;87;21595;-65
2021/05/20 01:53:41;;;;;;;8.48;6.35;;;;;;;4.88;72.89;99430.86;1621715;87;21019;-66
2021/05/20 01:56:09;;;;;;;8.43;5.83;;;;;;;4.87;72.98;99431.31;1621244;87;21038;-65
2021/05/20 01:58:36;;;;;;;;;;;;;;;4.86;73.12;99436.52;1625124;88;21001;-66
2021/05/20 02:01:05;;;;;;;11.08;6.87;;;;;;;4.85;73.19;99428.37;1619268;87;20174;-66
2021/05/20 02:03:33;;;;;;;8.55;6.80;;;;;;;4.82;73.21;99438.80;1623146;88;21070;-66
2021/05/20 02:06:02;;;;;;;;;;;;;;;4.79;73.23;99439.73;1624757;86;21014;-65
2021/05/20 02:08:30;;;;;;;8.73;6.62;;;;;;;4.78;73.36;99434.59;1597031;88;20999;-66
2021/05/20 02:10:57;;;;;;;10.72;6.62;;;;;;;4.76;73.24;99438.53;1620878;87;20994;-66
2021/05/20 02:13:24;;;;;;;8.03;6.55;;;;;;;4.74;73.37;99436.42;1620177;87;20927;-66
2021/05/20 02:15:51;;;;;;;8.28;6.53;;;;;;;4.75;73.44;99439.86;1625944;83;20995;-66
2021/05/20 02:18:18;;;;;;;10.67;7.00;;;;;;;4.73;73.50;99434.71;1740226;81;20974;-65
2021/05/20 02:20:45;;;;;;;13.47;6.80;;;;;;;4.73;73.57;99436.45;1733241;81;21207;-65
2021/05/20 02:23:12;;;;;;;8.48;7.12;;;;;;;4.74;73.65;99440.76;1737425;80;21465;-66
2021/05/20 02:25:39;;;;;;;9.13;7.22;;;;;;;4.75;73.73;99435.98;1736802;81;21400;-66
2021/05/20 02:28:06;;;;;;;9.30;6.95;;;;;;;4.75;73.72;99439.86;1735813;81;20963;-66
2021/05/20 02:30:34;;;;;;;7.53;6.70;;;;;;;4.75;73.76;99438.56;1735481;81;21518;-66
2021/05/20 02:33:01;;;;;;;10.23;7.58;;;;;;;4.76;73.85;99433.78;1734042;81;22249;-66
2021/05/20 02:35:28;;;;;;;9.18;6.03;;;;;;;4.76;73.95;99437.66;1710621;80;21544;-66
2021/05/20 02:37:55;;;;;;;10.95;7.50;;;;;;;4.79;74.21;99442.75;1735724;81;21474;-66
2021/05/20 02:40:21;;;;;;;8.48;6.95;;;;;;;4.83;74.06;99445.66;1735844;81;20908;-66
2021/05/20 02:42:49;;;;;;;8.85;6.90;;;;;;;4.86;74.08;99441.69;1740520;81;21060;-66
2021/05/20 02:45:19;;;;;;;9.70;7.78;;;;;;;4.88;74.24;99443.80;1735662;81;21072;-65
2021/05/20 02:47:48;;;;;;;9.23;7.47;;;;;;;4.92;74.30;99450.56;1708999;82;20985;-66
2021/05/20 02:50:17;;;;;;;8.33;7.28;;;;;;;4.93;74.20;99445.81;1681145;84;20947;-65
2021/05/20 02:52:45;;;;;;;9.83;7.53;;;;;;;4.96;74.31;99447.02;1689836;84;21000;-66
2021/05/20 02:55:20;;;;;;;8.65;7.50;;;;;;;5.03;74.27;99445.09;1684162;84;20941;-66
2021/05/20 02:57:53;;;;;;;11.20;7.45;;;;;;;5.08;74.34;99445.36;1684828;84;21858;-66
2021/05/20 03:00:19;;;;;;;7.97;6.87;;;;;;;5.19;74.38;99448.09;1680655;82;20961;-66
2021/05/20 03:02:51;;;;;;;11.33;7.85;;;;;;;5.30;74.44;99443.44;1683320;84;20965;-66
2021/05/20 03:05:19;;;;;;;8.88;6.45;;;;;;;5.73;75.04;99449.86;1683296;84;20990;-66
2021/05/20 03:07:46;;;;;;;7.42;6.15;;;;;;;6.53;75.00;99447.25;1684329;84;21589;-66
2021/05/20 03:10:14;;;;;;;7.58;6.03;;;;;;;7.32;74.70;99441.71;1686081;84;26836;-66
2021/05/20 03:12:41;;;;;;;8.35;5.85;;;;;;;8.07;74.27;99443.08;1684519;83;21523;-66
2021/05/20 03:15:09;;;;;;;7.63;5.23;;;;;;;8.69;73.66;99436.97;1683913;84;21029;-66
2021/05/20 03:17:35;;;;;;;;;;;;;;;9.24;73.23;99438.83;1687221;84;21062;-66
2021/05/20 03:20:05;;;;;;;6.17;3.85;;;;;;;9.75;72.66;99446.89;1687768;84;20159;-66
2021/05/20 03:22:32;;;;;;;7.35;5.20;;;;;;;10.33;73.05;99446.63;1684900;84;21170;-66
2021/05/20 03:24:58;;;;;;;6.08;4.35;;;;;;;10.95;72.67;99445.16;1685219;84;20977;-66
2021/05/20 03:27:25;;;;;;;5.70;4.08;;;;;;;11.57;72.18;99447.89;1687431;84;20925;-67
2021/05/20 03:29:52;;;;;;;4.55;4.08;;;;;;;12.14;71.44;99447.30;1684969;84;20965;-67
2021/05/20 03:32:18;;;;;;;5.62;4.17;;;;;;;12.70;71.79;99443.09;1684739;84;21016;-67
2021/05/20 03:34:47;;;;;;;7.60;4.40;;;;;;;13.25;70.80;99448.48;1683006;84;21594;-67
2021/05/20 03:37:14;;;;;;;4.35;3.95;;;;;;;13.79;71.09;99445.97;1685098;82;20977;-66
2021/05/20 03:39:40;;;;;;;4.05;3.67;;;;;;;14.43;70.52;99440.39;1687253;84;21651;-67
2021/05/20 03:42:07;;;;;;;4.75;4.17;;;;;;;14.65;69.54;99440.28;1683529;84;21622;-67
2021/05/20 03:44:34;;;;;;;4.08;3.62;;;;;;;15.06;69.49;99434.75;1683008;84;20925;-67
2021/05/20 03:47:01;;;;;;;4.80;3.80;;;;;;;15.50;68.96;99435.18;1679004;84;21555;-67
2021/05/20 03:49:28;;;;;;;6.08;4.70;;;;;;;16.11;69.62;99433.34;1707553;82;20929;-67
2021/05/20 03:51:54;;;;;;;5.85;4.28;;;;;;;16.85;69.70;99436.98;1715606;82;20952;-67
2021/05/20 03:54:21;;;;;;;4.53;3.50;;;;;;;17.57;69.43;99428.14;1716870;82;20965;-67
2021/05/20 03:56:48;;;;;;;4.12;3.52;;;;;;;18.31;68.86;99432.17;1723325;82;20964;-64
2021/05/20 03:59:15;;;;;;;7.17;3.85;;;;;;;18.88;68.17;99431.36;1718957;82;21142;-64
2021/05/20 04:01:41;;;;;;;4.35;3.65;;;;;;;19.30;67.32;99429.91;1713935;82;21005;-64
2021/05/20 04:04:08;;;;;;;7.03;3.85;;;;;;;19.55;66.98;99435.19;1719377;82;20990;-65
2021/05/20 04:06:35;;;;;;;8.45;4.03;;;;;;;19.75;66.07;99426.81;1718039;82;21635;-64
2021/05/20 04:09:03;;;;;;;4.45;3.55;;;;;;;20.23;66.87;99429.94;1716113;82;21566;-65
2021/05/20 04:11:29;;;;;;;5.60;3.50;;;;;;;20.64;65.18;99428.41;1694186;82;21042;-64
2021/05/20 04:13:56;;;;;;;6.05;3.52;;;;;;;20.42;63.97;99430.89;1699630;82;20971;-65
2021/05/20 04:16:25;;;;;;;5.30;3.60;;;;;;;20.48;63.56;99438.27;1743127;81;20920;-65
2021/05/20 04:18:51;;;;;;;3.60;3.22;;;;;;;20.43;63.76;99441.34;1747922;81;20921;-65
2021/05/20 04:21:18;;;;;;;6.45;3.25;;;;;;;20.84;63.25;99443.77;1741503;81;20933;-65
2021/05/20 04:23:46;;;;;;;8.83;3.40;;;;;;;20.75;61.98;99437.05;1741253;81;21139;-65
2021/05/20 04:26:18;;;;;;;4.00;3.15;;;;;;;20.66;61.55;99439.22;1686217;84;20926;-65
2021/05/20 04:28:41;;;;;;;4.67;3.27;;;;;;;20.59;61.30;99442.62;1687112;83;20886;-66
2021/05/20 04:31:08;;;;;;;;;;;;;;;20.56;60.85;99443.73;1689420;84;20997;-65
2021/05/20 04:33:34;;;;;;;5.30;3.08;;;;;;;20.17;58.25;99451.70;1689114;84;20196;-65
2021/05/20 04:36:00;;;;;;;;;;;;;;;20.11;61.51;99454.44;1689185;84;21183;-65
2021/05/20 04:38:27;;;;;;;;;;;;;;;20.40;60.10;99458.03;1696580;82;20213;-65
2021/05/20 04:40:53;;;;;;;;;;;;;;;20.87;60.55;99451.47;1747497;81;20503;-65
2021/05/20 04:43:19;;;;;;;;;;;;;;;21.19;59.71;99459.84;1749662;80;20144;-65
2021/05/20 04:45:46;;;;;;;4.58;3.87;;;;;;;21.79;60.21;99458.54;1742786;81;20240;-65
2021/05/20 04:48:13;;;;;;;6.08;3.67;;;;;;;22.04;59.57;99451.17;1741251;80;20938;-65
2021/05/20 04:50:40;;;;;;;6.95;3.90;;;;;;;22.18;58.83;99455.61;1744428;81;21464;-65
2021/05/20 04:53:09;;;;;;;6.42;3.40;;;;;;;22.47;58.57;99457.52;1742655;81;21410;-65
2021/05/20 04:55:36;;;;;;;5.60;3.90;;;;;;;22.79;57.83;99454.72;1742026;81;20942;-65
2021/05/20 04:58:02;;;;;;;11.45;3.98;;;;;;;22.71;57.39;99452.87;1745132;81;20951;-65
2021/05/20 05:00:29;;;;;;;5.72;3.40;;;;;;;22.78;57.17;99454.39;1737214;80;21063;-65
2021/05/20 05:02:56;;;;;;;6.20;3.10;;;;;;;22.84;57.27;99461.74;1741474;81;21696;-65
2021/05/20 05:05:23;;;;;;;9.53;3.27;;;;;;;23.27;57.52;99459.98;1746516;81;20881;-65
2021/05/20 05:07:50;;;;;;;4.65;2.95;;;;;;;23.48;57.38;99462.73;1743432;81;21839;-65
2021/05/20 05:10:16;;;;;;;5.10;2.85;;;;;;;23.73;56.96;99463.16;1740706;81;21088;-65
2021/05/20 05:12:43;;;;;;;5.58;3.22;;;;;;;24.20;56.75;99459.89;1748006;81;21704;-65
2021/05/20 05:15:10;;;;;;;4.62;3.40;;;;;;;24.20;54.98;99461.23;1746845;81;21462;-65
2021/05/20 05:17:38;;;;;;;3.45;3.00;;;;;;;23.48;54.04;99464.90;1745790;81;20947;-65
2021/05/20 05:20:07;;;;;;;4.20;2.92;;;;;;;22.52;53.58;99472.53;1746320;81;20920;-65
2021/05/20 05:22:34;;;;;;;8.63;3.80;;;;;;;22.05;53.46;99474.09;1730476;81;21310;-66
2021/05/20 05:25:01;;;;;;;74.05;8.63;;;;;;;22.31;54.49;99470.69;1746602;80;21022;-66
2021/05/20 05:27:28;;;;;;;19.92;4.75;;;;;;;22.38;54.00;99472.22;1745515;81;20947;-67
2021/05/20 05:29:55;;;;;;;11.85;3.92;;;;;;;22.61;53.61;99474.74;1725456;81;20992;-67
2021/05/20 05:32:23;;;;;;;9.45;3.50;;;;;;;22.21;52.76;99479.23;1745731;81;21015;-65
2021/05/20 05:34:50;;;;;;;8.45;2.95;;;;;;;22.60;53.06;99478.88;1741935;81;21547;-65
2021/05/20 05:37:17;;;;;;;11.95;3.20;;;;;;;22.73;52.83;99483.30;1678822;84;21216;-65
2021/05/20 05:39:44;;;;;;;13.83;3.45;;;;;;;22.63;52.39;99482.09;1704440;81;21418;-65
2021/05/20 05:42:11;;;;;;;6.53;3.25;;;;;;;22.77;52.26;99486.00;1692323;84;20945;-66
2021/05/20 05:44:38;;;;;;;5.10;3.10;;;;;;;22.63;52.00;99483.89;1692682;84;20969;-66
2021/05/20 05:47:06;;;;;;;8.25;3.33;;;;;;;22.74;51.66;99486.29;1684138;84;21072;-66
2021/05/20 05:49:39;;;;;;;4.83;2.33;;;;;;;23.17;52.10;99473.94;1693072;84;21743;-66
2021/05/20 05:52:05;;;;;;;3.22;1.80;;;;;;;23.29;50.03;99472.65;1716756;82;20917;-67
2021/05/20 05:54:30;;;;;;;3.80;2.30;;;;;;;21.90;46.98;99477.78;1733959;82;20873;-67
2021/05/20 05:56:59;;;;;;;2.67;1.92;;;;;;;21.06;49.38;99480.59;1732336;80;21040;-67
2021/05/20 05:59:25;;;;;;;6.60;2.10;;;;;;;21.42;49.80;99488.69;1730790;82;21027;-67
2021/05/20 06:01:52;;;;;;;3.40;2.08;;;;;;;20.91;49.17;99486.84;1739589;80;21066;-66
2021/05/20 06:04:18;;;;;;;3.80;2.00;;;;;;;21.07;49.58;99490.22;1739688;82;21577;-66
2021/05/20 06:06:46;;;;;;;3.05;2.00;;;;;;;20.96;47.75;99486.42;1735480;82;20853;-66
2021/05/20 06:09:14;;;;;;;4.45;1.87;;;;;;;20.52;48.96;99494.02;1705781;83;20925;-67
2021/05/20 06:11:43;;;;;;;6.58;2.25;;;;;;;20.66;48.50;99501.56;1708147;83;21888;-66
2021/05/20 06:14:10;;;;;;;3.45;1.70;;;;;;;20.62;48.11;99504.16;1709305;81;21013;-66
2021/05/20 06:16:40;;;;;;;8.60;2.62;;;;;;;20.72;48.66;99506.29;1700390;83;20956;-66
2021/05/20 06:19:09;;;;;;;8.60;2.10;;;;;;;20.86;49.00;99505.50;1703132;83;20898;-66
2021/05/20 06:21:36;;;;;;;5.67;2.25;;;;;;;21.48;48.70;99509.34;1735376;81;20972;-66
2021/05/20 06:24:04;;;;;;;5.33;2.12;;;;;;;21.26;48.74;99503.05;1736520;82;20913;-66
2021/05/20 06:26:30;;;;;;;7.08;2.67;;;;;;;21.67;49.04;99497.28;1734938;80;21024;-65
2021/05/20 06:29:02;;;;;;;6.65;2.37;;;;;;;20.76;47.68;99506.37;1736882;82;20964;-66
2021/05/20 06:31:29;;;;;;;9.03;2.15;;;;;;;20.68;48.56;99503.59;1732681;82;21508;-66
2021/05/20 06:33:56;;;;;;;8.25;3.22;;;;;;;20.27;47.38;99508.19;1709336;82;20950;-65
2021/05/20 06:36:25;;;;;;;10.32;2.92;;;;;;;19.71;48.45;99511.48;1733894;81;20986;-65
2021/05/20 06:38:52;;;;;;;5.30;3.30;;;;;;;19.43;48.59;99516.52;1734325;82;21009;-65
2021/05/20 06:41:21;;;;;;;4.40;2.62;;;;;;;19.08;48.69;99517.44;1731251;81;21522;-65
2021/05/20 06:43:48;;;;;;;3.33;2.25;;;;;;;18.88;48.90;99519.98;1735218;81;20873;-65
2021/05/20 06:46:15;;;;;;;11.50;2.65;;;;;;;18.96;48.82;99513.55;1735905;82;21748;-65
2021/05/20 06:48:42;;;;;;;6.95;2.55;;;;;;;18.81;48.36;99512.69;1735900;82;21447;-64
2021/05/20 06:51:09;;;;;;;4.28;2.20;;;;;;;17.91;46.99;99520.50;1739636;80;20981;-65
2021/05/20 06:53:38;;;;;;;2.75;2.40;;;;;;;17.89;48.68;99520.61;1681350;84;20985;-65
2021/05/20 06:56:08;;;;;;;6.35;2.62;;;;;;;18.05;49.13;99513.61;1686379;82;21003;-65
2021/05/20 07:01:23;;;;;;;6.80;2.45;;;;;;;18.68;48.94;99511.52;1658374;84;20955;-65
2021/05/20 07:03:54;;;;;;;;;;;;;;;19.16;48.78;99507.03;1689548;84;21530;-65
2021/05/20 07:06:27;;;;;;;21.95;4.87;;;;;;;19.03;47.02;99505.09;1684461;82;20557;-65
2021/05/20 07:08:54;;;;;;;3.75;2.35;;;;;;;18.90;48.47;99511.41;1686024;84;21532;-65
2021/05/20 07:11:38;;;;;;;34.45;5.78;;;;;;;18.77;46.66;99509.47;1658800;84;21579;-66
2021/05/20 07:14:04;;;;;;;2.02;1.60;;;;;;;17.98;47.22;99507.17;1684913;84;20921;-66
2021/05/20 07:16:34;;;;;;;5.10;1.70;;;;;;;17.91;46.87;99512.58;1682258;82;21682;-65
2021/05/20 07:19:01;;;;;;;9.23;2.70;;;;;;;16.97;46.78;99511.17;1683594;84;20979;-65
2021/05/20 07:21:28;;;;;;;1.90;1.50;;;;;;;17.02;47.73;99511.66;1667182;84;20962;-66
2021/05/20 07:23:55;;;;;;;4.12;2.37;;;;;;;17.14;48.10;99513.37;1705261;81;20969;-65
2021/05/20 07:26:22;;;;;;;6.83;2.45;;;;;;;16.38;47.21;99513.89;1703591;83;20898;-65
2021/05/20 07:28:49;;;;;;;;;;;;;;;15.89;48.77;99515.23;1673629;83;21036;-65
2021/05/20 07:31:17;;;;;;;18.48;2.40;;;;;;;15.82;49.37;99510.52;1676461;84;20166;-65
2021/05/20 07:33:47;;;;;;;8.43;2.15;;;;;;;15.64;49.07;99515.29;1677979;84;20959;-64
2021/05/20 07:36:14;;;;;;;9.03;2.65;;;;;;;15.62;49.42;99514.55;1682051;84;20949;-65
2021/05/20 07:38:40;;;;;;;3.90;2.20;;;;;;;15.47;49.46;99511.70;1680673;84;20973;-64
2021/05/20 07:41:08;;;;;;;3.37;2.62;;;;;;;15.28;49.38;99523.98;1677776;84;21798;-64
2021/05/20 07:43:35;;;;;;;9.53;2.92;;;;;;;14.74;49.52;99523.73;1679308;83;21061;-65
2021/05/20 07:46:02;;;;;;;4.12;2.37;;;;;;;14.85;50.14;99528.27;1682341;84;21472;-63
2021/05/20 07:48:33;;;;;;;10.50;2.65;;;;;;;14.53;49.83;99519.44;1683027;84;20962;-64
2021/05/20 07:50:58;;;;;;;2.95;1.90;;;;;;;14.24;50.11;99513.47;1692484;83;20966;-64
2021/05/20 07:53:24;;;;;;;32.33;5.78;;;;;;;13.97;50.74;99514.30;1747386;80;21161;-64
2021/05/20 07:55:51;;;;;;;52.10;9.30;;;;;;;14.12;51.06;99512.49;1720645;81;21610;-64
2021/05/20 07:58:18;;;;;;;8.00;2.98;;;;;;;14.37;51.21;99510.41;1742556;81;20920;-64
2021/05/20 08:00:44;;;;;;;3.30;1.82;;;;;;;14.74;51.47;99513.22;1744716;81;21014;-64
2021/05/20 08:03:34;;;;;;;37.70;10.08;;;;;;;14.86;50.67;99504.49;1746482;81;21542;-64
2021/05/20 08:06:03;;;;;;;3.05;1.20;;;;;;;15.20;50.95;99506.11;1733726;81;21098;-64
2021/05/20 08:11:10;;;;;;;10.25;2.05;;;;;;;14.77;50.58;99502.50;1730633;81;21090;-64
2021/05/20 08:13:37;;;;;;;2.08;1.70;;;;;;;15.19;51.81;99500.48;1743051;81;21473;-65
2021/05/20 08:16:05;;;;;;;2.22;1.30;;;;;;;15.47;51.12;99495.92;1752183;80;20944;-65
2021/05/20 08:18:32;;;;;;;10.55;2.25;;;;;;;15.09;49.98;99492.86;1743289;81;21752;-64
2021/05/20 08:20:59;;;;;;;;;;;;;;;14.76;50.75;99494.27;1747608;80;21553;-64
2021/05/20 08:23:27;;;;;;;2.67;1.37;;;;;;;14.65;50.50;99508.60;1740800;81;20163;-64
2021/05/20 08:25:54;;;;;;;2.62;1.25;;;;;;;14.49;51.18;99500.39;1751065;81;21553;-64
2021/05/20 08:28:23;;;;;;;2.80;1.30;;;;;;;14.93;51.49;99499.20;1748057;80;20977;-64
2021/05/20 08:30:50;;;;;;;3.67;1.30;;;;;;;15.30;50.60;99495.80;1693760;82;21733;-64
2021/05/20 08:33:19;;;;;;;2.52;1.07;;;;;;;14.91;50.36;99495.83;1743837;81;20982;-64
2021/05/20 08:35:46;;;;;;;4.65;0.90;;;;;;;14.57;50.12;99500.39;1742019;81;20978;-64
2021/05/20 08:38:14;;;;;;;3.20;1.42;;;;;;;14.48;50.69;99503.97;1744276;81;20961;-64
2021/05/20 08:40:42;;;;;;;7.58;1.60;;;;;;;14.61;50.99;99501.38;1741269;80;20906;-64
2021/05/20 08:43:09;;;;;;;4.65;1.37;;;;;;;15.19;51.69;99500.48;1696987;82;21043;-64
2021/05/20 08:45:39;;;;;;;44.60;2.87;;;;;;;15.85;51.54;99498.44;1747430;81;20949;-64
2021/05/20 08:48:07;;;;;;;7.62;1.00;;;;;;;16.19;51.26;99503.41;1744651;81;20966;-64
2021/05/20 08:50:35;;;;;;;1.00;0.60;;;;;;;16.26;50.85;99495.41;1742479;81;21462;-64
2021/05/20 08:53:04;;;;;;;2.83;0.95;;;;;;;16.18;49.74;99503.03;1744281;81;20937;-64
2021/05/20 08:55:34;;;;;;;4.92;1.10;;;;;;;15.88;50.30;99501.72;1743774;81;21169;-64
2021/05/20 08:58:04;;;;;;;6.08;1.00;;;;;;;15.25;48.17;99507.94;1738358;81;20891;-64
2021/05/20 09:00:33;;;;;;;1.60;0.90;;;;;;;14.38;48.83;99512.08;1742166;81;21584;-64
2021/05/20 09:03:13;;;;;;;2.80;1.12;;;;;;;13.94;49.06;99513.19;1746165;80;20947;-64
2021/05/20 09:05:42;;;;;;;5.25;1.25;;;;;;;13.60;50.00;99514.03;1744988;80;20908;-64
2021/05/20 09:08:14;;;;;;;2.87;0.90;;;;;;;13.57;50.53;99507.67;1740700;80;21097;-64
2021/05/20 09:10:44;;;;;;;2.15;1.25;;;;;;;13.92;50.70;99508.98;1740321;81;20934;-64
2021/05/20 09:13:19;;;;;;;2.05;1.05;;;;;;;13.94;50.43;99506.63;1743568;81;20968;-64
2021/05/20 09:15:51;;;;;;;2.72;1.10;;;;;;;14.02;50.94;99503.04;1749139;81;20930;-64
2021/05/20 09:18:24;;;;;;;1.90;1.20;;;;;;;14.80;51.78;99487.83;1741569;81;20944;-64
2021/05/20 09:20:56;;;;;;;3.47;1.20;;;;;;;15.58;51.05;99493.36;1744081;80;21746;-65
2021/05/20 09:23:34;;;;;;;3.08;1.20;;;;;;;15.84;50.79;99484.44;1735231;81;21005;-64
2021/05/20 09:26:08;;;;;;;3.25;1.45;;;;;;;15.66;49.16;99496.29;1741241;80;20903;-64
2021/05/20 09:28:49;;;;;;;4.78;1.65;;;;;;;14.75;49.17;99491.25;1742687;80;21478;-65
2021/05/20 09:31:43;;;;;;;5.60;1.15;;;;;;;14.14;49.64;99501.88;1723767;81;20939;-65
2021/05/20 09:34:20;;;;;;;2.77;1.00;;;;;;;13.89;50.22;99502.14;1739619;81;20952;-65
2021/05/20 09:36:51;;;;;;;1.77;0.90;;;;;;;14.19;50.45;99489.29;1744302;81;20930;-65
2021/05/20 09:39:18;;;;;;;5.33;1.50;;;;;;;14.88;50.17;99488.63;1746504;81;20905;-64
2021/05/20 09:41:45;;;;;;;1.82;0.85;;;;;;;14.93;49.81;99490.00;1659216;84;21971;-65
2021/05/20 09:44:30;;;;;;;1.82;1.40;;;;;;;14.72;49.50;99489.66;1685042;83;20981;-65
2021/05/20 09:47:00;;;;;;;4.67;1.22;;;;;;;14.46;49.42;99496.66;1693237;84;21804;-65
2021/05/20 09:49:27;;;;;;;1.70;0.88;;;;;;;14.21;50.14;99504.48;1706691;83;21626;-65
2021/05/20 09:52:22;;;;;;;3.67;1.05;;;;;;;13.87;49.96;99502.73;1709545;81;24723;-64
2021/05/20 09:54:50;;;;;;;2.22;1.20;;;;;;;13.64;50.28;99508.98;1702544;83;20963;-64
2021/05/20 09:57:37;;;;;;;6.03;1.45;;;;;;;13.62;50.92;99506.08;1698918;83;20930;-65
2021/05/20 10:00:15;;;;;;;2.22;1.17;;;;;;;13.76;50.96;99499.95;1730792;80;21145;-65
2021/05/20 10:02:45;;;;;;;2.75;1.02;;;;;;;13.81;50.93;99507.07;1728598;80;20909;-65
2021/05/20 10:05:32;;;;;;;1.72;1.00;;;;;;;13.96;51.15;99499.51;1732278;80;21294;-65
2021/05/20 10:08:09;;;;;;;3.25;0.82;;;;;;;14.39;51.06;99497.99;1733684;80;21969;-65
2021/05/20 10:10:38;;;;;;;1.40;0.90;;;;;;;14.64;51.13;99499.85;1734876;80;20908;-64
2021/05/20 10:13:09;;;;;;;1.60;1.00;;;;;;;14.77;51.21;99487.56;1731561;80;21009;-64
2021/05/20 10:15:37;;;;;;;2.05;1.10;;;;;;;14.67;50.42;99504.06;1730819;82;20909;-65
2021/05/20 10:18:13;;;;;;;1.05;0.98;;;;;;;14.18;50.96;99492.39;1734032;82;20996;-64
2021/05/20 10:20:43;;;;;;;2.12;0.98;;;;;;;13.61;51.97;99501.31;1732818;80;20975;-64
2021/05/20 10:23:22;;;;;;;3.80;1.10;;;;;;;13.06;52.77;99516.97;1734142;82;20932;-64
2021/05/20 10:25:52;;;;;;;1.22;1.10;;;;;;;13.00;52.70;99509.01;1738483;82;21040;-64
2021/05/20 10:28:22;;;;;;;2.55;1.30;;;;;;;13.53;52.72;99505.36;1734351;82;21458;-65
2021/05/20 10:30:53;;;;;;;3.25;1.30;;;;;;;13.87;52.32;99514.55;1734162;80;20909;-64
2021/05/20 10:33:26;;;;;;;3.52;1.32;;;;;;;13.93;51.93;99503.64;1732173;80;20925;-64
2021/05/20 10:35:55;;;;;;;1.77;0.90;;;;;;;14.07;52.46;99498.81;1734101;82;20917;-64
2021/05/20 10:38:36;;;;;;;7.62;1.60;;;;;;;14.60;52.97;99501.50;1735062;82;20991;-64
2021/05/20 10:41:19;;;;;;;7.92;1.00;;;;;;;14.62;51.44;99499.58;1735942;82;20909;-64
2021/05/20 10:43:50;;;;;;;5.08;1.60;;;;;;;14.33;51.67;99490.53;1735603;80;20905;-64
2021/05/20 10:46:19;;;;;;;2.22;0.85;;;;;;;13.96;52.02;99506.07;1732241;81;21489;-64
2021/05/20 10:48:53;;;;;;;1.57;0.95;;;;;;;13.87;52.24;99511.92;1734188;82;20932;-64
2021/05/20 10:51:30;;;;;;;3.27;1.10;;;;;;;13.81;52.24;99507.07;1720766;80;20986;-64
2021/05/20 10:54:07;;;;;;;1.10;0.80;;;;;;;13.85;51.90;99511.17;1723107;81;20924;-64
2021/05/20 10:56:46;;;;;;;2.05;0.80;;;;;;;13.99;52.15;99504.55;1740644;80;22298;-64
2021/05/20 10:59:34;;;;;;;2.42;1.10;;;;;;;14.61;52.73;99497.91;1741869;81;20933;-64
2021/05/20 11:02:01;;;;;;;7.25;1.30;;;;;;;14.87;51.97;99489.11;1746197;80;20955;-65
2021/05/20 11:04:37;;;;;;;3.37;1.17;;;;;;;14.94;51.14;99489.04;1743186;81;21048;-65
2021/05/20 11:07:11;;;;;;;5.90;1.10;;;;;;;14.57;48.38;99489.88;1741597;80;20932;-64
2021/05/20 11:09:47;;;;;;;4.12;0.85;;;;;;;14.19;49.71;99485.35;1740841;80;20906;-64
2021/05/20 11:12:17;;;;;;;0.95;0.70;;;;;;;14.03;50.49;99486.38;1733327;81;20927;-65
2021/05/20 11:14:45;;;;;;;2.35;0.90;;;;;;;14.20;50.72;99485.70;1736747;81;20963;-66
2021/05/20 11:17:30;;;;;;;1.52;0.70;;;;;;;14.18;49.46;99479.73;1749003;80;21103;-63
2021/05/20 11:20:27;;;;;;;3.17;1.02;;;;;;;14.00;50.06;99486.58;1729820;80;20968;-64
2021/05/20 11:23:21;;;;;;;;;;;;;;;13.86;49.92;99481.34;1744161;81;20937;-64
2021/05/20 11:25:59;;;;;;;1.98;1.10;;;;;;;14.25;50.49;99486.25;1736898;81;20145;-65
2021/05/20 11:28:26;;;;;;;1.98;0.60;;;;;;;14.37;50.05;99486.77;1745757;81;20981;-65
2021/05/20 11:31:00;;;;;;;0.90;0.70;;;;;;;14.29;50.04;99473.30;1737871;81;21004;-65
2021/05/20 11:33:30;;;;;;;2.45;0.80;;;;;;;14.48;49.74;99476.38;1741588;80;20919;-65
2021/05/20 11:36:18;;;;;;;2.20;1.00;;;;;;;14.58;48.84;99483.67;1737945;81;20940;-66
2021/05/20 11:38:26;;;;;;;1.62;1.15;;;;;;;14.58;49.62;99479.25;1725787;81;20936;-66
2021/05/20 11:40:54;;;;;;;1.57;0.85;;;;;;;14.63;49.94;99476.33;1738124;81;20948;-66
2021/05/20 11:43:32;;;;;;;4.70;0.90;;;;;;;14.89;49.87;99478.47;1730993;81;20982;-65
2021/05/20 11:45:59;;;;;;;1.50;0.70;;;;;;;14.92;49.03;99475.15;1742919;80;21531;-65
2021/05/20 11:48:25;;;;;;;6.58;1.00;;;;;;;15.15;49.36;99475.34;1733027;81;20968;-65
2021/05/20 11:50:55;;;;;;;2.98;1.27;;;;;;;14.94;48.72;99478.52;1742292;81;20945;-66
2021/05/20 11:53:25;;;;;;;4.47;1.30;;;;;;;14.58;49.08;99481.05;1742344;81;20928;-66
2021/05/20 11:55:54;;;;;;;3.80;1.27;;;;;;;14.63;49.37;99476.33;1745132;81;21516;-66
2021/05/20 11:58:21;;;;;;;5.92;1.20;;;;;;;14.47;49.06;99482.56;1679477;83;21018;-66